createdAt,value
2022-10-02T00:02:21.421Z,42.60
2022-10-02T00:04:54.766Z,40.33
2022-10-02T00:07:45.095Z,25.13
2022-10-02T00:10:23.102Z,17.38
2022-10-02T00:12:55.746Z,16.17
2022-10-02T00:15:27.501Z,22.58
2022-10-02T00:17:58.401Z,14.30
2022-10-02T00:20:38.515Z,19.15
2022-10-02T00:23:11.714Z,14.40
2022-10-02T00:25:56.049Z,20.13
2022-10-02T00:28:28.305Z,17.85
2022-10-02T00:31:32.652Z,18.55
2022-10-02T00:34:21.859Z,16.88
2022-10-02T00:37:23.554Z,12.30
2022-10-02T00:40:22.584Z,10.88
2022-10-02T00:43:04.373Z,14.32
2022-10-02T00:45:42.982Z,9.15
2022-10-02T00:48:26.712Z,13.07
2022-10-02T00:51:07.784Z,13.88
2022-10-02T00:53:56.908Z,12.85
2022-10-02T00:56:38.561Z,13.35
2022-10-02T00:59:27.108Z,12.52
2022-10-02T01:02:00.374Z,10.20
2022-10-02T01:04:35.400Z,16.92
2022-10-02T01:07:06.176Z,14.20
2022-10-02T01:09:33.358Z,11.75
2022-10-02T01:12:00.766Z,10.38
2022-10-02T01:14:38.930Z,16.00
2022-10-02T01:17:24.586Z,17.08
2022-10-02T01:19:51.357Z,13.60
2022-10-02T01:22:26.905Z,12.70
2022-10-02T01:24:58.084Z,14.05
2022-10-02T01:30:06.131Z,9.40
2022-10-02T01:32:34.072Z,15.13
2022-10-02T01:35:00.944Z,14.20
2022-10-02T01:37:32.352Z,17.30
2022-10-02T01:40:04.390Z,17.20
2022-10-02T01:42:31.648Z,15.63
2022-10-02T01:44:58.454Z,14.18
2022-10-02T01:48:00.513Z,10.68
2022-10-02T01:50:47.759Z,11.35
2022-10-02T01:53:30.179Z,16.17
2022-10-02T01:56:09.540Z,8.57
2022-10-02T01:58:49.998Z,12.07
2022-10-02T02:01:25.367Z,13.47
2022-10-02T02:04:03.777Z,13.05
2022-10-02T02:06:39.651Z,17.77
2022-10-02T02:09:12.419Z,21.13
2022-10-02T02:11:44.621Z,22.13
2022-10-02T02:14:22.642Z,16.20
2022-10-02T02:17:00.726Z,17.23
2022-10-02T02:19:46.779Z,13.00
2022-10-02T02:22:22.878Z,16.08
2022-10-02T02:24:57.911Z,15.50
2022-10-02T02:27:33.592Z,15.45
2022-10-02T02:30:07.196Z,13.43
2022-10-02T02:32:38.826Z,14.95
2022-10-02T02:35:17.157Z,8.85
2022-10-02T02:37:46.610Z,21.10
2022-10-02T02:40:18.772Z,17.60
2022-10-02T02:42:54.995Z,12.43
2022-10-02T02:45:29.682Z,14.40
2022-10-02T02:48:02.549Z,17.52
2022-10-02T02:50:41.368Z,9.30
2022-10-02T02:53:19.246Z,12.80
2022-10-02T02:55:49.097Z,14.70
2022-10-02T02:58:25.262Z,12.68
2022-10-02T03:00:51.686Z,18.23
2022-10-02T03:03:18.641Z,10.27
2022-10-02T03:05:51.880Z,16.00
2022-10-02T03:08:28.168Z,14.38
2022-10-02T03:11:19.709Z,15.15
2022-10-02T03:13:58.794Z,14.40
2022-10-02T03:16:52.414Z,16.67
2022-10-02T03:19:45.644Z,11.30
2022-10-02T03:22:17.960Z,17.35
2022-10-02T03:24:50.282Z,16.85
2022-10-02T03:27:37.129Z,17.63
2022-10-02T03:30:07.149Z,18.13
2022-10-02T03:32:35.139Z,15.40
2022-10-02T03:35:04.522Z,18.75
2022-10-02T03:37:31.390Z,9.88
2022-10-02T03:40:00.168Z,13.20
2022-10-02T03:42:30.413Z,20.95
2022-10-02T03:44:56.820Z,15.65
2022-10-02T03:47:23.251Z,17.73
2022-10-02T03:49:49.940Z,18.65
2022-10-02T03:52:18.350Z,16.55
2022-10-02T03:54:45.595Z,14.60
2022-10-02T03:57:22.358Z,16.77
2022-10-02T04:00:09.612Z,14.60
2022-10-02T04:02:48.213Z,15.80
2022-10-02T04:05:25.648Z,21.70
2022-10-02T04:07:57.102Z,13.07
2022-10-02T04:10:40.978Z,9.68
2022-10-02T04:13:17.600Z,12.52
2022-10-02T04:15:55.937Z,16.95
2022-10-02T04:18:35.256Z,21.10
2022-10-02T04:21:24.026Z,13.90
2022-10-02T04:23:57.743Z,11.95
2022-10-02T04:26:33.720Z,15.98
2022-10-02T04:29:15.883Z,13.82
2022-10-02T04:31:42.588Z,19.83
2022-10-02T04:34:12.961Z,11.45
2022-10-02T04:36:54.225Z,13.50
2022-10-02T04:39:53.893Z,13.18
2022-10-02T04:42:32.103Z,12.20
2022-10-02T04:45:14.887Z,16.38
2022-10-02T04:48:02.618Z,12.93
2022-10-02T04:50:56.021Z,17.00
2022-10-02T04:53:29.151Z,18.13
2022-10-02T04:56:01.081Z,11.43
2022-10-02T04:58:49.215Z,16.83
2022-10-02T05:01:29.981Z,25.17
2022-10-02T05:04:22.310Z,19.20
2022-10-02T05:07:14.838Z,19.65
2022-10-02T05:10:02.300Z,11.70
2022-10-02T05:12:58.066Z,16.17
2022-10-02T05:15:45.875Z,14.52
2022-10-02T05:18:17.151Z,21.73
2022-10-02T05:21:09.311Z,17.58
2022-10-02T05:26:37.950Z,13.48
2022-10-02T05:29:13.685Z,11.13
2022-10-02T05:32:04.306Z,13.98
2022-10-02T05:34:55.177Z,15.02
2022-10-02T05:37:34.492Z,9.40
2022-10-02T05:40:19.569Z,12.40
2022-10-02T05:42:53.221Z,16.92
2022-10-02T05:45:33.582Z,10.13
2022-10-02T05:48:12.190Z,14.88
2022-10-02T05:50:38.576Z,12.45
2022-10-02T05:53:22.531Z,9.45
2022-10-02T05:55:58.839Z,17.50
2022-10-02T05:58:33.778Z,12.38
2022-10-02T06:01:07.124Z,13.07
2022-10-02T06:04:03.312Z,11.45
2022-10-02T06:06:40.168Z,12.95
2022-10-02T06:09:25.493Z,8.35
2022-10-02T06:12:01.804Z,11.18
2022-10-02T06:14:36.286Z,17.45
2022-10-02T06:17:08.933Z,15.93
2022-10-02T06:19:42.912Z,10.65
2022-10-02T06:22:18.740Z,12.85
2022-10-02T06:24:55.388Z,10.68
2022-10-02T06:27:55.633Z,13.27
2022-10-02T06:30:22.216Z,9.02
2022-10-02T06:32:55.302Z,12.82
2022-10-02T06:35:48.149Z,10.38
2022-10-02T06:38:35.867Z,15.30
2022-10-02T06:41:24.852Z,10.50
2022-10-02T06:44:22.373Z,9.77
2022-10-02T06:47:17.038Z,8.85
2022-10-02T06:50:03.747Z,6.72
2022-10-02T06:52:55.264Z,9.60
2022-10-02T06:55:36.763Z,9.80
2022-10-02T06:58:08.819Z,11.20
2022-10-02T07:00:49.934Z,9.95
2022-10-02T07:03:32.859Z,9.88
2022-10-02T07:06:11.399Z,7.30
2022-10-02T07:08:59.221Z,9.90
2022-10-02T07:11:50.431Z,9.93
2022-10-02T07:14:31.808Z,8.73
2022-10-02T07:17:20.355Z,5.93
2022-10-02T07:20:13.872Z,4.57
2022-10-02T07:22:59.162Z,7.72
2022-10-02T07:25:25.491Z,7.13
2022-10-02T07:28:06.131Z,9.05
2022-10-02T07:31:06.996Z,6.32
2022-10-02T07:34:06.395Z,8.75
2022-10-02T07:36:59.165Z,5.32
2022-10-02T07:39:35.216Z,6.57
2022-10-02T07:42:16.752Z,6.00
2022-10-02T07:44:52.204Z,9.50
2022-10-02T07:47:48.155Z,6.68
2022-10-02T07:50:51.824Z,5.50
2022-10-02T07:53:49.606Z,3.78
2022-10-02T07:56:20.683Z,3.03
2022-10-02T07:59:12.012Z,3.13
2022-10-02T08:01:41.439Z,5.22
2022-10-02T08:04:17.257Z,2.97
2022-10-02T08:06:46.957Z,4.85
2022-10-02T08:09:23.285Z,2.92
2022-10-02T08:11:56.721Z,4.55
2022-10-02T08:14:31.707Z,2.97
2022-10-02T08:17:06.656Z,2.22
2022-10-02T08:19:39.466Z,1.98
2022-10-02T08:22:47.357Z,4.35
2022-10-02T08:25:27.592Z,3.13
2022-10-02T08:28:11.290Z,6.32
2022-10-02T08:30:38.069Z,3.22
2022-10-02T08:33:22.207Z,3.58
2022-10-02T08:36:38.661Z,3.25
2022-10-02T08:39:25.721Z,2.58
2022-10-02T08:42:10.390Z,4.28
2022-10-02T08:44:58.804Z,1.63
2022-10-02T08:47:48.142Z,2.22
2022-10-02T08:50:33.747Z,3.28
2022-10-02T08:53:40.578Z,2.88
2022-10-02T08:56:37.670Z,2.05
2022-10-02T08:59:43.747Z,3.80
2022-10-02T09:02:46.549Z,3.03
2022-10-02T09:05:39.364Z,2.30
2022-10-02T09:08:27.427Z,2.88
2022-10-02T09:11:09.048Z,1.00
2022-10-02T09:14:19.811Z,1.63
2022-10-02T09:17:17.605Z,1.47
2022-10-02T09:20:15.493Z,1.65
2022-10-02T09:23:17.236Z,1.75
2022-10-02T09:25:53.534Z,1.10
2022-10-02T09:29:02.062Z,1.52
2022-10-02T09:32:04.716Z,1.75
2022-10-02T09:34:50.916Z,1.20
2022-10-02T09:37:52.308Z,3.75
2022-10-02T09:40:46.717Z,1.75
2022-10-02T09:43:38.890Z,0.82
2022-10-02T09:46:27.038Z,1.17
2022-10-02T09:49:32.003Z,0.95
2022-10-02T09:52:37.224Z,1.95
2022-10-02T09:55:53.309Z,1.20
2022-10-02T09:58:56.462Z,3.20
2022-10-02T10:01:51.863Z,2.90
2022-10-02T10:04:54.073Z,1.50
2022-10-02T10:07:49.160Z,2.78
2022-10-02T10:11:11.105Z,1.63
2022-10-02T10:13:50.725Z,0.88
2022-10-02T10:16:32.087Z,2.53
2022-10-02T10:19:22.162Z,2.00
2022-10-02T10:22:08.116Z,1.75
2022-10-02T10:24:56.270Z,0.68
2022-10-02T10:27:43.024Z,1.98
2022-10-02T10:30:50.213Z,1.30
2022-10-02T10:33:53.871Z,1.02
2022-10-02T10:36:46.810Z,1.95
2022-10-02T10:39:43.865Z,2.25
2022-10-02T10:42:37.775Z,13.90
2022-10-02T10:45:40.636Z,5.93
2022-10-02T10:48:33.697Z,2.00
2022-10-02T10:51:35.217Z,1.20
2022-10-02T10:54:25.988Z,1.60
2022-10-02T10:57:04.220Z,1.30
2022-10-02T11:00:03.440Z,2.28
2022-10-02T11:03:04.495Z,2.25
2022-10-02T11:05:56.858Z,2.10
2022-10-02T11:08:55.336Z,1.20
2022-10-02T11:11:27.784Z,1.90
2022-10-02T11:14:05.543Z,2.25
2022-10-02T11:17:10.733Z,1.00
2022-10-02T11:19:43.027Z,1.52
2022-10-02T11:22:21.762Z,1.35
2022-10-02T11:25:16.260Z,1.40
2022-10-02T11:28:01.246Z,1.33
2022-10-02T11:30:53.674Z,0.80
2022-10-02T11:33:44.211Z,0.75
2022-10-02T11:36:42.523Z,1.60
2022-10-02T11:39:41.168Z,1.65
2022-10-02T11:42:42.655Z,1.00
2022-10-02T11:48:11.936Z,1.15
2022-10-02T11:51:10.346Z,0.57
2022-10-02T11:54:03.599Z,2.67
2022-10-02T11:57:01.591Z,0.63
2022-10-02T12:00:07.593Z,0.82
2022-10-02T12:05:17.633Z,0.63
2022-10-02T12:07:58.328Z,3.60
2022-10-02T12:10:55.258Z,1.20
2022-10-02T12:13:24.546Z,2.30
2022-10-02T12:16:05.803Z,2.53
2022-10-02T12:21:44.191Z,1.35
2022-10-02T12:24:38.249Z,2.13
2022-10-02T12:27:15.609Z,0.77
2022-10-02T12:30:01.179Z,2.75
2022-10-02T12:32:40.853Z,1.00
2022-10-02T12:35:25.020Z,2.88
2022-10-02T12:38:09.563Z,4.00
2022-10-02T12:40:52.554Z,5.97
2022-10-02T12:43:56.333Z,6.20
2022-10-02T12:47:00.596Z,5.22
2022-10-02T12:49:59.317Z,2.58
2022-10-02T12:52:48.735Z,2.22
2022-10-02T12:55:52.153Z,3.60
2022-10-02T12:58:31.258Z,1.77
2022-10-02T13:01:12.862Z,1.67
2022-10-02T13:04:04.120Z,0.95
2022-10-02T13:06:55.356Z,1.33
2022-10-02T13:09:30.115Z,1.02
2022-10-02T13:12:38.169Z,2.47
2022-10-02T13:15:37.268Z,1.90
2022-10-02T13:18:43.635Z,2.22
2022-10-02T13:21:30.742Z,0.60
2022-10-02T13:24:30.632Z,4.13
2022-10-02T13:27:16.884Z,2.80
2022-10-02T13:29:51.814Z,1.60
2022-10-02T13:32:36.549Z,0.70
2022-10-02T13:35:16.308Z,2.78
2022-10-02T13:38:22.740Z,3.33
2022-10-02T13:41:33.884Z,4.15
2022-10-02T13:44:38.292Z,4.03
2022-10-02T13:47:35.973Z,1.52
2022-10-02T13:50:29.787Z,1.38
2022-10-02T13:53:04.180Z,4.88
2022-10-02T13:55:47.440Z,3.80
2022-10-02T13:58:29.010Z,5.88
2022-10-02T14:01:06.469Z,5.05
2022-10-02T14:03:44.562Z,4.10
2022-10-02T14:06:27.919Z,3.00
2022-10-02T14:09:11.575Z,3.75
2022-10-02T14:11:56.682Z,3.72
2022-10-02T14:14:40.145Z,4.25
2022-10-02T14:17:38.473Z,2.35
2022-10-02T14:20:50.664Z,7.90
2022-10-02T14:23:43.616Z,4.95
2022-10-02T14:26:32.546Z,4.50
2022-10-02T14:29:18.016Z,1.98
2022-10-02T14:32:05.112Z,5.78
2022-10-02T14:35:14.271Z,3.90
2022-10-02T14:38:07.093Z,3.22
2022-10-02T14:40:58.095Z,3.85
2022-10-02T14:43:51.500Z,5.30
2022-10-02T14:46:36.485Z,4.07
2022-10-02T14:49:18.019Z,3.72
2022-10-02T14:52:07.816Z,6.13
2022-10-02T14:54:52.655Z,6.53
2022-10-02T14:57:36.390Z,4.15
2022-10-02T15:00:14.593Z,7.57
2022-10-02T15:02:53.103Z,6.93
2022-10-02T15:05:46.995Z,3.13
2022-10-02T15:08:35.153Z,5.82
2022-10-02T15:11:04.632Z,4.18
2022-10-02T15:13:57.774Z,6.15
2022-10-02T15:17:04.087Z,4.07
2022-10-02T15:19:39.605Z,6.22
2022-10-02T15:22:21.915Z,7.35
2022-10-02T15:24:57.821Z,5.18
2022-10-02T15:27:38.669Z,4.35
2022-10-02T15:30:21.165Z,4.30
2022-10-02T15:33:11.281Z,9.43
2022-10-02T15:35:43.858Z,6.55
2022-10-02T15:38:44.374Z,5.13
2022-10-02T15:41:41.945Z,6.60
2022-10-02T15:44:49.936Z,6.47
2022-10-02T15:48:01.623Z,5.43
2022-10-02T15:50:34.151Z,9.55
2022-10-02T15:53:36.696Z,7.35
2022-10-02T15:56:25.147Z,7.30
2022-10-02T15:59:16.339Z,5.88
2022-10-02T16:01:55.568Z,11.50
2022-10-02T16:04:48.637Z,9.98
2022-10-02T16:07:35.507Z,7.75
2022-10-02T16:10:15.326Z,7.38
2022-10-02T16:13:02.850Z,8.82
2022-10-02T16:15:45.646Z,9.13
2022-10-02T16:18:20.809Z,12.23
2022-10-02T16:21:16.568Z,14.63
2022-10-02T16:23:57.502Z,16.77
2022-10-02T16:26:56.761Z,22.70
2022-10-02T16:29:55.718Z,28.98
2022-10-02T16:32:48.883Z,35.88
2022-10-02T16:35:54.054Z,35.70
2022-10-02T16:38:50.476Z,58.83
2022-10-02T16:41:38.232Z,46.42
2022-10-02T16:44:38.841Z,37.25
2022-10-02T16:47:05.160Z,45.53
2022-10-02T16:49:52.022Z,63.53
2022-10-02T16:52:29.296Z,67.00
2022-10-02T16:55:14.113Z,67.63
2022-10-02T16:57:45.313Z,85.75
2022-10-02T17:03:21.297Z,65.30
2022-10-02T17:05:47.716Z,67.05
2022-10-02T17:08:31.112Z,65.68
2022-10-02T17:11:19.167Z,48.83
2022-10-02T17:14:14.650Z,48.75
2022-10-02T17:16:50.302Z,46.25
2022-10-02T17:19:33.388Z,54.17
2022-10-02T17:22:11.456Z,74.90
2022-10-02T17:24:47.025Z,57.17
2022-10-02T17:27:32.045Z,48.90
2022-10-02T17:30:18.768Z,40.47
2022-10-02T17:32:48.870Z,40.25
2022-10-02T17:35:31.596Z,35.70
2022-10-02T17:38:33.140Z,25.30
2022-10-02T17:44:05.875Z,28.13
2022-10-02T17:47:07.923Z,39.38
2022-10-02T17:49:52.235Z,35.33
2022-10-02T17:53:16.584Z,31.08
2022-10-02T17:56:29.626Z,24.20
2022-10-02T17:59:11.229Z,26.15
2022-10-02T18:01:54.457Z,27.90
2022-10-02T18:04:32.120Z,27.52
2022-10-02T18:07:32.307Z,27.13
2022-10-02T18:10:10.935Z,19.92
2022-10-02T18:12:58.913Z,16.67
2022-10-02T18:15:36.148Z,22.38
2022-10-02T18:18:24.164Z,17.83
2022-10-02T18:21:07.270Z,17.13
2022-10-02T18:23:52.561Z,15.63
2022-10-02T18:26:33.690Z,12.48
2022-10-02T18:29:39.399Z,10.68
2022-10-02T18:32:26.763Z,8.52
2022-10-02T18:35:14.158Z,10.70
2022-10-02T18:37:50.161Z,11.10
2022-10-02T18:40:33.531Z,16.55
2022-10-02T18:43:11.029Z,14.80
2022-10-02T18:45:55.863Z,13.18
2022-10-02T18:48:42.847Z,12.75
2022-10-02T18:51:24.380Z,12.38
2022-10-02T18:53:53.737Z,17.02
2022-10-02T18:56:48.685Z,20.20
2022-10-02T18:59:17.988Z,17.20
2022-10-02T19:02:14.186Z,24.17
2022-10-02T19:04:50.011Z,16.50
2022-10-02T19:07:43.439Z,14.02
2022-10-02T19:10:40.123Z,11.55
2022-10-02T19:13:16.451Z,13.05
2022-10-02T19:15:46.491Z,12.50
2022-10-02T19:18:25.259Z,9.18
2022-10-02T19:21:06.857Z,11.90
2022-10-02T19:23:53.453Z,13.27
2022-10-02T19:26:25.914Z,15.48
2022-10-02T19:28:58.705Z,16.92
2022-10-02T19:31:27.319Z,16.90
2022-10-02T19:34:02.067Z,13.50
2022-10-02T19:36:33.599Z,12.40
2022-10-02T19:39:07.614Z,9.43
2022-10-02T19:41:41.804Z,8.98
2022-10-02T19:44:17.817Z,11.38
2022-10-02T19:46:48.835Z,13.07
2022-10-02T19:49:22.940Z,7.70
2022-10-02T19:51:50.811Z,11.38
2022-10-02T19:54:26.837Z,13.95
2022-10-02T19:57:07.672Z,9.68
2022-10-02T19:59:42.893Z,11.23
2022-10-02T20:02:21.762Z,15.77
2022-10-02T20:04:50.997Z,12.38
2022-10-02T20:07:20.288Z,13.93
2022-10-02T20:09:58.320Z,8.25
2022-10-02T20:12:30.865Z,13.35
2022-10-02T20:15:08.468Z,12.13
2022-10-02T20:17:37.037Z,9.82
2022-10-02T20:20:07.816Z,12.55
2022-10-02T20:22:51.500Z,14.73
2022-10-02T20:25:26.418Z,12.95
2022-10-02T20:28:00.076Z,9.90
2022-10-02T20:30:35.616Z,7.75
2022-10-02T20:33:28.984Z,13.88
2022-10-02T20:36:08.023Z,9.05
2022-10-02T20:38:39.107Z,12.00
2022-10-02T20:41:18.473Z,20.23
2022-10-02T20:44:02.268Z,12.52
2022-10-02T20:46:51.532Z,13.20
2022-10-02T20:49:52.635Z,15.10
2022-10-02T20:52:50.517Z,17.10
2022-10-02T20:55:33.317Z,14.90
2022-10-02T20:58:02.673Z,13.60
2022-10-02T21:00:50.528Z,10.70
2022-10-02T21:03:26.071Z,8.45
2022-10-02T21:06:07.627Z,14.20
2022-10-02T21:09:01.976Z,18.15
2022-10-02T21:11:56.331Z,11.40
2022-10-02T21:14:43.389Z,14.38
2022-10-02T21:17:51.020Z,22.50
2022-10-02T21:20:33.213Z,21.83
2022-10-02T21:23:45.879Z,16.48
2022-10-02T21:26:31.485Z,11.38
2022-10-02T21:29:25.127Z,16.05
2022-10-02T21:32:11.409Z,15.15
2022-10-02T21:34:58.705Z,17.63
2022-10-02T21:38:00.066Z,15.23
2022-10-02T21:40:50.817Z,19.25
2022-10-02T21:43:37.831Z,12.70
2022-10-02T21:46:06.972Z,19.20
2022-10-02T21:49:04.850Z,18.13
2022-10-02T21:51:53.424Z,15.98
2022-10-02T21:54:57.454Z,18.40
2022-10-02T21:58:01.015Z,16.42
2022-10-02T22:00:28.975Z,21.23
2022-10-02T22:03:23.304Z,17.20
2022-10-02T22:06:21.179Z,23.48
2022-10-02T22:09:15.404Z,19.67
2022-10-02T22:11:57.355Z,25.35
2022-10-02T22:14:36.756Z,25.25
2022-10-02T22:17:10.401Z,21.35
2022-10-02T22:19:53.824Z,21.35
2022-10-02T22:22:57.499Z,28.25
2022-10-02T22:25:33.136Z,23.05
2022-10-02T22:28:09.739Z,27.13
2022-10-02T22:30:59.015Z,21.60
2022-10-02T22:33:43.491Z,24.90
2022-10-02T22:36:39.678Z,20.67
2022-10-02T22:39:15.073Z,23.05
2022-10-02T22:42:02.813Z,26.65
2022-10-02T22:44:49.472Z,22.48
2022-10-02T22:47:29.979Z,26.05
2022-10-02T22:50:03.074Z,23.07
2022-10-02T22:52:48.536Z,21.08
2022-10-02T22:55:23.929Z,31.88
2022-10-02T22:58:00.247Z,25.13
2022-10-02T23:00:32.618Z,28.35
2022-10-02T23:03:08.189Z,29.17
2022-10-02T23:05:46.552Z,31.23
2022-10-02T23:08:28.090Z,27.38
2022-10-02T23:11:10.333Z,29.63
2022-10-02T23:13:45.344Z,26.50
2022-10-02T23:16:33.830Z,20.13
2022-10-02T23:19:00.193Z,24.70
2022-10-02T23:21:46.101Z,22.00
2022-10-02T23:24:12.613Z,24.40
2022-10-02T23:26:43.109Z,26.30
2022-10-02T23:29:35.885Z,25.48
2022-10-02T23:32:39.936Z,20.65
2022-10-02T23:35:25.537Z,37.53
2022-10-02T23:38:14.913Z,32.17
2022-10-02T23:41:21.521Z,23.60
2022-10-02T23:44:08.585Z,20.35
2022-10-02T23:46:59.459Z,27.42
2022-10-02T23:49:33.810Z,22.63
2022-10-02T23:52:24.816Z,24.33
2022-10-02T23:55:17.238Z,23.33
2022-10-02T23:57:49.509Z,28.77
